createdAt,value
2017-07-26T00:01:20.231Z,92.04
2017-07-26T00:03:47.885Z,92.10
2017-07-26T00:06:15.550Z,92.23
2017-07-26T00:08:43.179Z,92.33
2017-07-26T00:11:10.812Z,92.40
2017-07-26T00:13:38.441Z,92.46
2017-07-26T00:16:06.117Z,92.63
2017-07-26T00:18:33.758Z,92.62
2017-07-26T00:21:01.422Z,92.95
2017-07-26T00:23:29.065Z,92.96
2017-07-26T00:25:56.743Z,93.05
2017-07-26T00:28:24.353Z,93.08
2017-07-26T00:30:52.233Z,93.08
2017-07-26T00:33:19.866Z,93.24
2017-07-26T00:35:47.498Z,93.63
2017-07-26T00:38:15.105Z,93.68
2017-07-26T00:40:42.768Z,93.54
2017-07-26T00:43:10.384Z,93.40
2017-07-26T00:45:38.023Z,93.38
2017-07-26T00:48:05.628Z,93.54
2017-07-26T00:50:33.260Z,93.30
2017-07-26T00:53:00.893Z,93.26
2017-07-26T00:55:28.757Z,93.36
2017-07-26T00:57:56.358Z,93.25
2017-07-26T01:00:23.986Z,93.13
2017-07-26T01:02:51.654Z,93.16
2017-07-26T01:05:19.239Z,93.35
2017-07-26T01:07:46.863Z,93.08
2017-07-26T01:10:14.560Z,93.18
2017-07-26T01:12:42.219Z,93.26
2017-07-26T01:15:09.822Z,93.22
2017-07-26T01:17:37.499Z,93.07
2017-07-26T01:20:05.130Z,93.19
2017-07-26T01:22:32.803Z,93.26
2017-07-26T01:25:00.449Z,92.80
2017-07-26T01:27:28.095Z,92.85
2017-07-26T01:29:55.751Z,92.70
2017-07-26T01:32:23.421Z,92.72
2017-07-26T01:34:51.047Z,92.74
2017-07-26T01:37:18.698Z,92.93
2017-07-26T01:39:46.476Z,93.08
2017-07-26T01:42:14.228Z,93.13
2017-07-26T01:44:41.853Z,92.83
2017-07-26T01:47:09.505Z,92.87
2017-07-26T01:49:37.158Z,93.04
2017-07-26T01:52:04.820Z,92.92
2017-07-26T01:54:32.466Z,93.01
2017-07-26T01:57:00.708Z,92.91
2017-07-26T01:59:28.372Z,92.89
2017-07-26T02:01:56.023Z,93.10
2017-07-26T02:04:23.726Z,92.99
2017-07-26T02:06:51.415Z,92.90
2017-07-26T02:09:19.048Z,92.96
2017-07-26T02:11:46.710Z,92.96
2017-07-26T02:14:14.347Z,93.05
2017-07-26T02:16:41.996Z,92.95
2017-07-26T02:19:09.638Z,93.12
2017-07-26T02:21:37.305Z,93.35
2017-07-26T02:24:04.943Z,93.50
2017-07-26T02:26:32.869Z,93.54
2017-07-26T02:29:00.533Z,93.59
2017-07-26T02:31:28.189Z,93.61
2017-07-26T02:33:55.863Z,93.86
2017-07-26T02:36:23.620Z,93.82
2017-07-26T02:38:51.251Z,93.91
2017-07-26T02:41:18.849Z,93.99
2017-07-26T02:43:46.535Z,94.03
2017-07-26T02:46:14.200Z,94.00
2017-07-26T02:48:41.990Z,94.22
2017-07-26T02:51:09.644Z,94.22
2017-07-26T02:53:37.322Z,94.31
2017-07-26T02:56:04.940Z,94.30
2017-07-26T02:58:32.588Z,94.40
2017-07-26T03:01:00.189Z,94.43
2017-07-26T03:03:27.836Z,94.53
2017-07-26T03:05:55.466Z,94.59
2017-07-26T03:08:23.097Z,94.48
2017-07-26T03:10:50.731Z,94.40
2017-07-26T03:13:18.415Z,94.31
2017-07-26T03:15:46.050Z,94.37
2017-07-26T03:18:13.681Z,94.24
2017-07-26T03:20:42.650Z,94.34
2017-07-26T03:23:10.315Z,94.30
2017-07-26T03:25:37.950Z,94.46
2017-07-26T03:28:05.585Z,94.49
2017-07-26T03:30:33.224Z,94.41
2017-07-26T03:33:00.865Z,94.40
2017-07-26T03:35:28.484Z,94.60
2017-07-26T03:37:56.135Z,94.54
2017-07-26T03:40:23.772Z,94.61
2017-07-26T03:42:51.389Z,94.63
2017-07-26T03:45:19.013Z,94.57
2017-07-26T03:47:46.654Z,94.29
2017-07-26T03:50:14.267Z,93.95
2017-07-26T03:52:41.898Z,94.17
2017-07-26T03:55:09.532Z,94.48
2017-07-26T03:57:37.693Z,94.52
2017-07-26T04:00:05.305Z,94.52
2017-07-26T04:02:32.964Z,94.56
2017-07-26T04:05:00.655Z,94.59
2017-07-26T04:07:28.282Z,94.58
2017-07-26T04:09:55.951Z,94.55
2017-07-26T04:12:23.598Z,94.54
2017-07-26T04:14:51.239Z,94.73
2017-07-26T04:17:18.856Z,94.63
2017-07-26T04:19:46.557Z,94.79
2017-07-26T04:22:14.191Z,94.73
2017-07-26T04:24:41.911Z,94.60
2017-07-26T04:27:09.529Z,94.56
2017-07-26T04:29:37.242Z,94.68
2017-07-26T04:32:04.884Z,94.71
2017-07-26T04:34:32.552Z,94.75
2017-07-26T04:37:00.271Z,94.79
2017-07-26T04:39:27.909Z,94.80
2017-07-26T04:41:55.543Z,94.68
2017-07-26T04:44:23.168Z,94.60
2017-07-26T04:46:50.778Z,94.66
2017-07-26T04:49:18.423Z,94.66
2017-07-26T04:51:46.268Z,94.59
2017-07-26T04:54:13.918Z,94.50
2017-07-26T04:56:41.541Z,94.46
2017-07-26T04:59:09.189Z,94.51
2017-07-26T05:01:36.873Z,94.53
2017-07-26T05:04:04.511Z,94.57
2017-07-26T05:06:32.148Z,94.54
2017-07-26T05:08:59.791Z,94.76
2017-07-26T05:11:27.466Z,94.93
2017-07-26T05:13:55.122Z,94.90
2017-07-26T05:16:22.756Z,95.02
2017-07-26T05:18:50.407Z,95.09
2017-07-26T05:21:18.119Z,95.16
2017-07-26T05:23:45.771Z,95.31
2017-07-26T05:26:13.401Z,95.24
2017-07-26T05:28:41.045Z,95.24
2017-07-26T05:31:08.748Z,95.30
2017-07-26T05:33:36.544Z,95.22
2017-07-26T05:36:04.171Z,95.31
2017-07-26T05:38:31.807Z,95.18
2017-07-26T05:40:59.884Z,95.19
2017-07-26T05:43:30.500Z,95.14
2017-07-26T05:45:58.165Z,94.91
2017-07-26T05:48:25.902Z,94.72
2017-07-26T05:50:53.556Z,94.33
2017-07-26T05:53:21.173Z,94.00
2017-07-26T05:55:48.842Z,93.34
2017-07-26T05:58:16.479Z,92.93
2017-07-26T06:00:44.148Z,92.56
2017-07-26T06:03:11.794Z,92.74
2017-07-26T06:05:40.248Z,92.69
2017-07-26T06:08:07.916Z,92.78
2017-07-26T06:10:35.596Z,93.05
2017-07-26T06:13:03.230Z,92.56
2017-07-26T06:15:30.904Z,92.28
2017-07-26T06:17:58.644Z,92.49
2017-07-26T06:20:26.297Z,91.91
2017-07-26T06:22:53.915Z,91.96
2017-07-26T06:25:21.584Z,91.39
2017-07-26T06:27:49.259Z,91.37
2017-07-26T06:30:17.094Z,91.35
2017-07-26T06:32:44.769Z,91.12
2017-07-26T06:35:12.419Z,91.31
2017-07-26T06:37:40.059Z,90.76
2017-07-26T06:40:08.924Z,90.99
2017-07-26T06:42:36.586Z,91.42
2017-07-26T06:45:04.457Z,91.08
2017-07-26T06:47:32.091Z,91.26
2017-07-26T06:49:59.746Z,91.49
2017-07-26T06:52:27.409Z,91.88
2017-07-26T06:54:55.107Z,91.19
2017-07-26T06:57:22.743Z,91.21
2017-07-26T06:59:50.407Z,90.45
2017-07-26T07:02:18.123Z,91.61
2017-07-26T07:04:45.779Z,90.54
2017-07-26T07:07:13.428Z,90.38
2017-07-26T07:09:41.096Z,89.90
2017-07-26T07:12:08.734Z,90.12
2017-07-26T07:14:36.371Z,90.04
2017-07-26T07:17:04.011Z,89.73
2017-07-26T07:19:31.638Z,90.35
2017-07-26T07:21:59.390Z,90.38
2017-07-26T07:24:27.108Z,89.82
2017-07-26T07:26:54.779Z,89.96
2017-07-26T07:29:22.417Z,90.64
2017-07-26T07:31:50.050Z,90.44
2017-07-26T07:34:17.701Z,90.52
2017-07-26T07:36:45.385Z,90.00
2017-07-26T07:39:13.016Z,90.14
2017-07-26T07:41:40.663Z,90.50
2017-07-26T07:44:08.308Z,90.68
2017-07-26T07:46:35.978Z,90.69
2017-07-26T07:49:03.636Z,91.42
2017-07-26T07:51:31.299Z,91.03
2017-07-26T07:53:58.945Z,90.95
2017-07-26T07:56:26.614Z,91.60
2017-07-26T07:58:54.572Z,91.79
2017-07-26T08:01:22.243Z,91.99
2017-07-26T08:03:49.874Z,92.00
2017-07-26T08:06:17.551Z,91.98
2017-07-26T08:08:45.192Z,91.91
2017-07-26T08:11:12.869Z,92.35
2017-07-26T08:13:40.508Z,92.19
2017-07-26T08:16:08.171Z,92.71
2017-07-26T08:18:35.824Z,93.03
2017-07-26T08:21:03.483Z,93.23
2017-07-26T08:23:31.107Z,92.95
2017-07-26T08:25:59.105Z,93.01
2017-07-26T08:28:26.714Z,93.53
2017-07-26T08:30:54.469Z,93.64
2017-07-26T08:33:23.545Z,93.80
2017-07-26T08:35:51.190Z,93.85
2017-07-26T08:38:18.918Z,93.96
2017-07-26T08:40:47.522Z,93.73
2017-07-26T08:43:15.332Z,93.80
2017-07-26T08:45:43.607Z,93.85
2017-07-26T08:48:11.257Z,93.97
2017-07-26T08:50:38.906Z,94.00
2017-07-26T08:53:06.620Z,94.00
2017-07-26T08:55:34.279Z,94.13
2017-07-26T08:58:03.321Z,94.21
2017-07-26T09:00:30.947Z,94.16
2017-07-26T09:02:58.635Z,94.24
2017-07-26T09:05:26.269Z,94.21
2017-07-26T09:07:53.909Z,94.43
2017-07-26T09:10:21.552Z,94.33
2017-07-26T09:12:49.567Z,94.27
2017-07-26T09:15:18.572Z,94.10
2017-07-26T09:17:46.227Z,94.16
2017-07-26T09:20:16.486Z,94.08
2017-07-26T09:22:44.581Z,94.21
2017-07-26T09:25:12.427Z,94.18
2017-07-26T09:27:40.211Z,94.22
2017-07-26T09:30:07.863Z,94.35
2017-07-26T09:32:36.997Z,94.26
2017-07-26T09:35:04.663Z,94.22
2017-07-26T09:37:32.383Z,94.24
2017-07-26T09:40:00.027Z,94.10
2017-07-26T09:42:27.677Z,93.97
2017-07-26T09:44:55.304Z,94.21
2017-07-26T09:47:22.970Z,94.11
2017-07-26T09:49:50.615Z,93.76
2017-07-26T09:52:18.848Z,93.94
2017-07-26T09:54:47.099Z,93.83
2017-07-26T09:57:14.721Z,93.83
2017-07-26T09:59:42.577Z,93.93
2017-07-26T10:02:10.601Z,93.94
2017-07-26T10:04:38.325Z,93.62
2017-07-26T10:07:05.954Z,93.22
2017-07-26T10:09:33.595Z,93.51
2017-07-26T10:12:01.219Z,93.03
2017-07-26T10:14:28.905Z,93.38
2017-07-26T10:16:56.515Z,93.40
2017-07-26T10:19:24.408Z,93.68
2017-07-26T10:21:52.044Z,93.70
2017-07-26T10:24:19.708Z,93.79
2017-07-26T10:26:47.322Z,93.77
2017-07-26T10:29:14.970Z,94.00
2017-07-26T10:31:42.637Z,94.00
2017-07-26T10:34:10.411Z,93.86
2017-07-26T10:36:38.032Z,93.96
2017-07-26T10:39:05.709Z,94.07
2017-07-26T10:41:33.329Z,93.59
2017-07-26T10:44:01.024Z,93.72
2017-07-26T10:46:28.683Z,93.76
2017-07-26T10:48:56.815Z,93.82
2017-07-26T10:51:24.444Z,93.90
2017-07-26T10:53:52.115Z,93.87
2017-07-26T10:56:19.838Z,94.14
2017-07-26T10:58:47.508Z,94.22
2017-07-26T11:01:15.153Z,94.26
2017-07-26T11:03:42.788Z,94.47
2017-07-26T11:06:10.631Z,94.54
2017-07-26T11:08:38.288Z,94.37
2017-07-26T11:11:05.919Z,94.43
2017-07-26T11:13:33.586Z,94.47
2017-07-26T11:16:01.362Z,94.69
2017-07-26T11:18:29.048Z,94.69
2017-07-26T11:20:56.684Z,94.56
2017-07-26T11:23:24.466Z,94.61
2017-07-26T11:25:52.108Z,94.56
2017-07-26T11:28:19.765Z,94.54
2017-07-26T11:30:47.415Z,94.55
2017-07-26T11:33:15.360Z,94.58
2017-07-26T11:35:43.045Z,94.76
2017-07-26T11:38:10.671Z,94.50
2017-07-26T11:40:38.367Z,94.70
2017-07-26T11:43:06.027Z,94.72
2017-07-26T11:45:33.679Z,94.74
2017-07-26T11:48:01.335Z,94.55
2017-07-26T11:50:28.983Z,94.53
2017-07-26T11:52:56.629Z,94.51
2017-07-26T11:55:24.367Z,94.45
2017-07-26T11:57:52.010Z,94.65
2017-07-26T12:00:19.663Z,94.68
2017-07-26T12:02:47.303Z,94.64
2017-07-26T12:05:14.943Z,94.82
2017-07-26T12:07:42.659Z,94.57
2017-07-26T12:10:10.387Z,94.79
2017-07-26T12:12:38.026Z,94.74
2017-07-26T12:15:05.671Z,94.56
2017-07-26T12:17:34.060Z,94.23
2017-07-26T12:20:01.767Z,93.98
2017-07-26T12:22:29.410Z,93.65
2017-07-26T12:24:57.059Z,94.12
2017-07-26T12:27:24.675Z,93.85
2017-07-26T12:29:52.402Z,93.22
2017-07-26T12:32:19.990Z,93.13
2017-07-26T12:34:47.626Z,93.00
2017-07-26T12:37:15.261Z,92.59
2017-07-26T12:39:42.932Z,92.52
2017-07-26T12:42:10.905Z,92.51
2017-07-26T12:44:38.555Z,92.30
2017-07-26T12:47:06.194Z,92.96
2017-07-26T12:49:33.927Z,92.86
2017-07-26T12:52:01.551Z,92.57
2017-07-26T12:54:29.200Z,92.61
2017-07-26T12:56:56.938Z,92.39
2017-07-26T12:59:24.603Z,91.96
2017-07-26T13:01:52.256Z,92.26
2017-07-26T13:04:19.899Z,91.58
2017-07-26T13:06:47.562Z,91.47
2017-07-26T13:09:15.339Z,92.19
2017-07-26T13:11:43.012Z,92.46
2017-07-26T13:14:10.640Z,92.12
2017-07-26T13:16:38.280Z,92.15
2017-07-26T13:19:05.923Z,92.10
2017-07-26T13:21:33.574Z,92.36
2017-07-26T13:24:01.222Z,91.96
2017-07-26T13:26:28.899Z,92.14
2017-07-26T13:28:56.512Z,92.01
2017-07-26T13:31:24.205Z,92.20
2017-07-26T13:33:52.609Z,91.56
2017-07-26T13:36:20.329Z,91.12
2017-07-26T13:38:48.092Z,91.27
2017-07-26T13:41:15.762Z,91.79
2017-07-26T13:43:43.435Z,91.22
2017-07-26T13:46:11.113Z,91.80
2017-07-26T13:48:39.747Z,91.40
2017-07-26T13:51:07.448Z,91.62
2017-07-26T13:53:35.107Z,90.79
2017-07-26T13:56:02.761Z,90.86
2017-07-26T13:58:30.410Z,91.08
2017-07-26T14:00:58.044Z,90.18
2017-07-26T14:03:25.722Z,90.52
2017-07-26T14:05:53.384Z,91.33
2017-07-26T14:08:21.111Z,91.74
2017-07-26T14:10:48.772Z,90.39
2017-07-26T14:13:16.433Z,90.96
2017-07-26T14:15:44.090Z,90.56
2017-07-26T14:18:11.732Z,90.70
2017-07-26T14:20:39.410Z,90.91
2017-07-26T14:23:07.097Z,91.25
2017-07-26T14:25:34.752Z,90.38
2017-07-26T14:28:02.433Z,90.61
2017-07-26T14:30:30.073Z,89.97
2017-07-26T14:32:57.747Z,90.67
2017-07-26T14:35:25.361Z,90.50
2017-07-26T14:37:53.019Z,90.31
2017-07-26T14:40:20.653Z,90.83
2017-07-26T14:42:48.919Z,90.34
2017-07-26T14:45:16.545Z,90.15
2017-07-26T14:47:44.182Z,90.94
2017-07-26T14:50:11.819Z,90.86
2017-07-26T14:52:39.498Z,90.72
2017-07-26T14:55:08.645Z,90.67
2017-07-26T14:57:36.354Z,91.12
2017-07-26T15:00:03.981Z,91.24
2017-07-26T15:02:32.294Z,91.36
2017-07-26T15:04:59.951Z,91.81
2017-07-26T15:07:27.855Z,92.37
2017-07-26T15:09:55.635Z,92.03
2017-07-26T15:12:23.377Z,92.05
2017-07-26T15:14:51.077Z,92.31
2017-07-26T15:17:18.766Z,91.96
2017-07-26T15:19:46.385Z,92.14
2017-07-26T15:22:14.034Z,91.22
2017-07-26T15:24:42.410Z,91.52
2017-07-26T15:27:10.077Z,91.15
2017-07-26T15:29:37.707Z,90.79
2017-07-26T15:32:05.374Z,90.63
2017-07-26T15:34:33.137Z,91.24
2017-07-26T15:37:00.797Z,90.79
2017-07-26T15:39:28.533Z,91.21
2017-07-26T15:41:56.208Z,91.00
2017-07-26T15:44:23.853Z,90.99
2017-07-26T15:46:52.209Z,91.17
2017-07-26T15:49:20.272Z,91.33
2017-07-26T15:51:47.919Z,91.16
2017-07-26T15:54:15.587Z,91.28
2017-07-26T15:56:43.311Z,91.27
2017-07-26T15:59:10.995Z,90.50
2017-07-26T16:01:38.694Z,90.75
2017-07-26T16:04:06.529Z,90.38
2017-07-26T16:06:34.249Z,90.94
2017-07-26T16:09:01.954Z,91.34
2017-07-26T16:11:29.610Z,91.01
2017-07-26T16:13:57.231Z,91.42
2017-07-26T16:16:24.871Z,91.27
2017-07-26T16:18:52.559Z,91.23
2017-07-26T16:21:20.186Z,91.35
2017-07-26T16:23:47.814Z,90.83
2017-07-26T16:26:15.444Z,91.20
2017-07-26T16:28:43.097Z,90.92
2017-07-26T16:31:10.721Z,90.84
2017-07-26T16:33:38.426Z,91.27
2017-07-26T16:36:06.089Z,91.51
2017-07-26T16:38:33.778Z,91.32
2017-07-26T16:41:01.508Z,91.41
2017-07-26T16:43:29.167Z,91.11
2017-07-26T16:45:56.828Z,91.01
2017-07-26T16:48:24.494Z,91.18
2017-07-26T16:50:52.160Z,90.85
2017-07-26T16:53:19.923Z,90.86
2017-07-26T16:55:47.580Z,90.90
2017-07-26T16:58:15.230Z,90.76
2017-07-26T17:00:42.866Z,91.04
2017-07-26T17:03:10.549Z,91.26
2017-07-26T17:05:38.182Z,91.05
2017-07-26T17:08:05.851Z,90.97
2017-07-26T17:10:33.518Z,91.12
2017-07-26T17:13:01.179Z,91.27
2017-07-26T17:15:28.881Z,91.25
2017-07-26T17:17:56.736Z,91.33
2017-07-26T17:20:24.378Z,91.30
2017-07-26T17:22:53.514Z,91.70
2017-07-26T17:25:22.466Z,91.91
2017-07-26T17:27:50.211Z,91.97
2017-07-26T17:30:17.854Z,92.09
2017-07-26T17:32:45.516Z,92.04
2017-07-26T17:35:13.157Z,92.27
2017-07-26T17:37:40.852Z,92.37
2017-07-26T17:40:08.536Z,92.15
2017-07-26T17:42:36.156Z,92.27
2017-07-26T17:45:04.367Z,92.59
2017-07-26T17:47:32.006Z,92.67
2017-07-26T17:49:59.815Z,92.81
2017-07-26T17:52:27.438Z,93.04
2017-07-26T17:54:55.239Z,92.87
2017-07-26T17:57:22.853Z,93.17
2017-07-26T17:59:50.490Z,93.03
2017-07-26T18:02:18.123Z,92.93
2017-07-26T18:04:45.820Z,93.19
2017-07-26T18:07:13.447Z,93.35
2017-07-26T18:09:41.246Z,93.45
2017-07-26T18:12:09.549Z,93.59
2017-07-26T18:14:37.961Z,93.66
2017-07-26T18:17:05.599Z,93.60
2017-07-26T18:19:33.276Z,93.80
2017-07-26T18:22:01.647Z,93.81
2017-07-26T18:24:29.315Z,93.98
2017-07-26T18:26:56.944Z,94.01
2017-07-26T18:29:26.006Z,94.09
2017-07-26T18:31:53.634Z,94.19
2017-07-26T18:34:21.308Z,94.26
2017-07-26T18:36:48.961Z,94.20
2017-07-26T18:39:16.647Z,94.41
2017-07-26T18:41:44.289Z,94.40
2017-07-26T18:44:11.978Z,94.37
2017-07-26T18:46:39.655Z,94.31
2017-07-26T18:49:07.345Z,94.39
2017-07-26T18:51:35.015Z,94.44
2017-07-26T18:54:02.681Z,94.51
2017-07-26T18:56:30.343Z,94.48
2017-07-26T18:58:58.375Z,94.55
2017-07-26T19:01:26.095Z,94.66
2017-07-26T19:03:53.743Z,94.77
2017-07-26T19:06:21.392Z,94.84
2017-07-26T19:08:49.033Z,94.93
2017-07-26T19:11:16.708Z,94.97
2017-07-26T19:13:44.497Z,95.00
2017-07-26T19:16:12.185Z,95.08
2017-07-26T19:18:39.950Z,95.21
2017-07-26T19:21:07.697Z,95.26
2017-07-26T19:23:35.336Z,95.36
2017-07-26T19:26:02.993Z,95.39
2017-07-26T19:28:31.097Z,95.41
2017-07-26T19:30:58.776Z,95.44
2017-07-26T19:33:26.472Z,95.51
2017-07-26T19:35:54.305Z,95.51
2017-07-26T19:38:21.945Z,95.42
2017-07-26T19:40:49.823Z,95.44
2017-07-26T19:43:18.495Z,95.45
2017-07-26T19:45:46.246Z,95.42
2017-07-26T19:48:13.897Z,95.44
2017-07-26T19:50:41.567Z,95.43
2017-07-26T19:53:09.389Z,95.51
2017-07-26T19:55:37.096Z,95.49
2017-07-26T19:58:04.747Z,95.60
2017-07-26T20:00:32.478Z,95.63
2017-07-26T20:03:00.104Z,95.67
2017-07-26T20:05:27.961Z,95.65
2017-07-26T20:07:55.588Z,95.64
2017-07-26T20:10:23.583Z,95.66
2017-07-26T20:12:51.299Z,95.58
2017-07-26T20:15:18.980Z,95.58
2017-07-26T20:17:46.623Z,95.54
2017-07-26T20:20:14.244Z,95.62
2017-07-26T20:22:42.049Z,95.73
2017-07-26T20:25:09.735Z,95.63
2017-07-26T20:27:37.830Z,95.66
2017-07-26T20:30:05.581Z,95.72
2017-07-26T20:32:33.289Z,95.70
2017-07-26T20:35:01.840Z,95.80
2017-07-26T20:37:29.491Z,95.70
2017-07-26T20:39:57.181Z,95.72
2017-07-26T20:42:24.822Z,95.76
2017-07-26T20:44:52.761Z,95.73
2017-07-26T20:47:20.485Z,95.73
2017-07-26T20:49:48.120Z,95.81
2017-07-26T20:52:15.780Z,95.82
2017-07-26T20:54:43.431Z,95.81
2017-07-26T20:57:11.076Z,95.92
2017-07-26T20:59:38.704Z,95.89
2017-07-26T21:02:06.765Z,95.87
2017-07-26T21:04:34.397Z,95.93
2017-07-26T21:07:02.035Z,95.94
2017-07-26T21:09:29.697Z,95.96
2017-07-26T21:11:57.348Z,95.99
2017-07-26T21:14:25.515Z,95.92
2017-07-26T21:16:53.247Z,95.92
2017-07-26T21:19:20.864Z,95.91
2017-07-26T21:21:49.263Z,95.93
2017-07-26T21:24:17.537Z,95.88
2017-07-26T21:26:45.268Z,95.80
2017-07-26T21:29:12.896Z,95.76
2017-07-26T21:31:40.877Z,95.74
2017-07-26T21:34:08.550Z,95.75
2017-07-26T21:36:36.197Z,95.71
2017-07-26T21:39:03.842Z,95.72
2017-07-26T21:41:31.621Z,95.78
2017-07-26T21:43:59.280Z,95.84
2017-07-26T21:46:26.939Z,95.93
2017-07-26T21:48:54.779Z,95.95
2017-07-26T21:51:23.154Z,95.98
2017-07-26T21:53:50.773Z,96.04
2017-07-26T21:56:18.570Z,96.08
2017-07-26T21:58:46.197Z,96.09
2017-07-26T22:01:13.830Z,96.04
2017-07-26T22:03:41.483Z,96.03
2017-07-26T22:06:09.089Z,96.06
2017-07-26T22:08:37.104Z,96.04
2017-07-26T22:11:04.755Z,96.04
2017-07-26T22:13:32.370Z,95.98
2017-07-26T22:16:00.028Z,95.94
2017-07-26T22:18:27.708Z,95.91
2017-07-26T22:20:55.727Z,95.86
2017-07-26T22:23:23.366Z,95.76
2017-07-26T22:25:51.341Z,95.71
2017-07-26T22:28:18.981Z,95.71
2017-07-26T22:30:46.599Z,95.83
2017-07-26T22:33:14.284Z,95.97
2017-07-26T22:35:41.917Z,96.09
2017-07-26T22:38:09.567Z,96.16
2017-07-26T22:40:37.359Z,96.22
2017-07-26T22:43:05.289Z,96.24
2017-07-26T22:45:32.947Z,96.14
2017-07-26T22:48:00.581Z,96.10
2017-07-26T22:50:28.213Z,96.01
2017-07-26T22:52:55.822Z,95.86
2017-07-26T22:55:23.485Z,95.74
2017-07-26T22:57:51.096Z,95.63
2017-07-26T23:00:19.022Z,95.57
2017-07-26T23:02:46.659Z,95.59
2017-07-26T23:05:14.281Z,95.54
2017-07-26T23:07:42.042Z,95.40
2017-07-26T23:10:09.737Z,95.43
2017-07-26T23:12:37.397Z,95.33
2017-07-26T23:15:05.044Z,95.31
2017-07-26T23:17:33.102Z,95.29
2017-07-26T23:20:00.734Z,95.29
2017-07-26T23:22:28.366Z,95.34
2017-07-26T23:24:56.081Z,95.30
2017-07-26T23:27:26.717Z,95.29
2017-07-26T23:29:54.394Z,95.30
2017-07-26T23:32:22.050Z,95.23
2017-07-26T23:34:50.081Z,95.19
2017-07-26T23:37:17.725Z,95.10
2017-07-26T23:39:45.348Z,95.12
2017-07-26T23:42:13.010Z,95.10
2017-07-26T23:44:40.645Z,94.99
2017-07-26T23:47:08.285Z,95.00
2017-07-26T23:49:35.919Z,95.00
2017-07-26T23:52:03.824Z,95.00
2017-07-26T23:54:31.473Z,95.09
2017-07-26T23:56:59.131Z,95.13
2017-07-26T23:59:26.783Z,95.12
